Latest METARs, TAFs and NOTAMs for MNMG


---------------------------------------------------------------------------
	(OBSERVATIONS)
MNMG 212300Z 05010KT 9999 FEW025TCU 30/21 Q1007 A2976 TCU/SE
     NOSIG
MNMG 212200Z 06012KT 9999 FEW025 32/21 Q1006 A2973 NOSIG=
MNMG 212100Z 05012KT 9999 FEW025 33/22 Q1006 A2973 NOSIG=
---------------------------------------------------------------------------
	(TERMINAL AREA FORECAST)
MNMG 212030Z 2200/2224 05010KT 9999 SCT024 SCT024
    FM220000 06010KT 8000
    PROB40 -DZ/-TS FEW022TCU
    BECMG 2202/2207 07010KT 9999 FEW018=
---------------------------------------------------------------------------
	(NOTAMS)


Sorry, no NOTAM available for MNMG
---------------------------------------------------------------------------